Cincinnati, OH

8:00 PM EST on February 10, 2016 (GMT -0500)
Mt Adams | | Change Station
CLOSE
Current Station
Personal Weather Station
Location: Cincinnati, OH
Elevation: 797 ft
Nearby Weather Stations

Elev 797 ft 39.11 °N, 84.50 °W | Updated 13 seconds ago

Overcast
Overcast
18.0 °F
Feels Like 18 °F
N
1.1
Wind Variable Wind from NE
Gusts 5.3 mph

Today
High -- | Low -- °F
--% Chance of Precip.
Yesterday
High -- | Low -- °F
Precip. -- in
Pressure 30.16 in
Visibility 6.0 miles
Clouds Few 2900 ft
Overcast 4100 ft
Windchill 18 °F
Dew Point 10 °F
Humidity 70%
Rainfall 0.00 in
Snow Depth Not available.
7:35 AM 6:08 PM
Waxing Crescent, 8% visible
METAR KLUK 110053Z 28008KT 6SM -SN FEW029 OVC041 M07/M13 A3013 RMK AO2 SNB47 SLP211 P0000 T10721133
Pressure 30.16 in
Visibility 6.0 miles
Clouds Few 2900 ft
Overcast 4100 ft
Windchill 18 °F
Dew Point 10 °F
Humidity 70%
Rainfall 0.00 in
Snow Depth Not available.
7:35 AM 6:08 PM
Waxing Crescent, 8% visible
METAR KLUK 110053Z 28008KT 6SM -SN FEW029 OVC041 M07/M13 A3013 RMK AO2 SNB47 SLP211 P0000 T10721133

10-Day Weather Forecast

Almanac

Astronomy

Feb. 10, 2016 Rise Set
Actual Time
Civil Twilight
Nautical Twilight
Astronomical Twilight
Moon
Length of Visible Light
Length of Day
Tomorrow will be .
, % of the Moon is Illuminated

Today's Extremes

State Highs State Lows

Community

WunderPhotos

Upload Photos

1,891,948 photos uploaded!

WunderBlog® & News

Nearby

Air Quality

  Air Quality AQ Index Pollutant
Not available.

Snow Depth

Station Depth Elevation

Earthquake Activity

City Distance Mag. Time & Date
Minimum magnitude displayed is 2.5.

Coastal Water Temperatures

Place Temperature

Stations

Nearby Weather Stations

Station Location Temp. Windchill Dew Point Humidity Wind Precip. Elev Updated Type
                   

Watches & Warnings

There are currently no watches in effect.